Time;durP1;ratioP1;P1;durP2;ratioP2;P2;SDS_P1;SDS_P2;PMS_P1;PMS_P2;Temp;Humidity;BMP_temperature;BMP_pressure;BME280_temperature;BME280_humidity;BME280_pressure;Samples;Min_cycle;Max_cycle;Signal;HPM_P1;HPM_P2
2022/05/07 00:01:10;;;;;;;15.68;10.08;;;;;;;6.63;73.98;101926.47;1693388;83;21052;-80
2022/05/07 00:03:39;;;;;;;19.45;10.15;;;;;;;6.61;74.01;101928.58;1693861;84;21160;-80
2022/05/07 00:06:06;;;;;;;15.28;10.58;;;;;;;6.59;74.05;101924.08;1705776;83;21212;-79
2022/05/07 00:08:33;;;;;;;14.68;10.25;;;;;;;6.58;74.03;101922.26;1692465;83;21089;-78
2022/05/07 00:10:59;;;;;;;14.33;9.78;;;;;;;6.53;74.04;101914.15;1711360;82;22420;-78
2022/05/07 00:13:26;;;;;;;13.62;10.15;;;;;;;6.57;74.20;101920.47;1692709;83;21121;-79
2022/05/07 00:18:38;;;;;;;15.58;9.45;;;;;;;6.56;74.20;101923.47;1692529;84;21117;-80
2022/05/07 00:21:05;;;;;;;17.05;10.32;;;;;;;6.56;74.19;101927.39;1721680;81;21049;-79
2022/05/07 00:23:32;;;;;;;13.72;9.90;;;;;;;6.55;74.29;101922.06;1711630;81;21828;-80
2022/05/07 00:25:59;;;;;;;13.58;9.93;;;;;;;6.56;74.23;101922.57;1692888;83;21090;-80
2022/05/07 00:28:26;;;;;;;14.55;9.15;;;;;;;6.54;74.19;101922.89;1692072;83;22134;-81
2022/05/07 00:30:53;;;;;;;15.15;10.30;;;;;;;6.51;74.11;101922.69;1692980;82;21122;-81
2022/05/07 00:33:21;;;;;;;18.60;10.75;;;;;;;6.48;74.10;101926.45;1711585;83;21532;-81
2022/05/07 00:35:48;;;;;;;14.40;10.43;;;;;;;6.45;74.08;101919.72;1692530;83;22249;-81
2022/05/07 00:38:15;;;;;;;18.75;10.80;;;;;;;6.40;74.02;101917.73;1711575;81;21054;-81
2022/05/07 00:40:42;;;;;;;16.15;9.58;;;;;;;6.37;73.99;101915.33;1692790;83;21523;-80
2022/05/07 00:43:12;;;;;;;17.25;9.35;;;;;;;6.33;74.06;101914.66;1692010;84;21060;-80
2022/05/07 00:45:37;;;;;;;14.38;9.43;;;;;;;6.31;74.17;101900.17;1691964;84;21050;-79
2022/05/07 00:48:04;;;;;;;17.57;10.63;;;;;;;6.32;74.28;101904.99;1692565;84;21723;-79
2022/05/07 00:53:17;;;;;;;17.37;9.80;;;;;;;6.32;74.35;101905.88;1692826;83;21571;-80
2022/05/07 00:55:44;;;;;;;18.42;10.25;;;;;;;6.31;74.36;101901.48;1720927;81;21196;-79
2022/05/07 00:58:10;;;;;;;18.82;10.05;;;;;;;6.30;74.37;101899.66;1711360;83;21126;-79
2022/05/07 01:00:37;;;;;;;15.20;9.40;;;;;;;6.29;74.36;101907.03;1709094;81;21744;-78
2022/05/07 01:03:04;;;;;;;13.95;9.28;;;;;;;6.28;74.33;101899.08;1702889;81;21481;-79
2022/05/07 01:05:31;;;;;;;13.43;8.85;;;;;;;6.26;74.30;101897.67;1704263;81;21869;-79
2022/05/07 01:07:58;;;;;;;17.20;9.53;;;;;;;6.24;74.19;101899.30;1705791;83;21071;-80
2022/05/07 01:10:27;;;;;;;14.87;8.78;;;;;;;6.21;74.14;101891.25;1692710;84;21092;-78
2022/05/07 01:12:55;;;;;;;15.65;9.48;;;;;;;6.17;74.08;101894.08;1705724;83;22550;-79
2022/05/07 01:15:24;;;;;;;15.32;9.68;;;;;;;6.11;74.03;101892.41;1692658;83;21112;-81
2022/05/07 01:17:51;;;;;;;17.32;10.43;;;;;;;6.09;74.13;101888.80;1711175;81;21105;-80
2022/05/07 01:20:18;;;;;;;17.73;11.03;;;;;;;6.11;74.30;101883.67;1711052;83;21125;-81
2022/05/07 01:22:45;;;;;;;16.40;11.08;;;;;;;6.09;74.24;101884.88;1711942;83;21070;-80
2022/05/07 01:25:11;;;;;;;21.90;12.73;;;;;;;6.10;74.48;101881.48;1693011;83;21758;-80
2022/05/07 01:27:38;;;;;;;22.87;13.40;;;;;;;6.10;74.49;101884.09;1711241;83;21866;-80
2022/05/07 01:30:06;;;;;;;18.70;12.10;;;;;;;6.07;74.36;101883.00;1692956;83;21117;-78
2022/05/07 01:32:33;;;;;;;22.85;11.25;;;;;;;6.05;74.36;101885.92;1692981;81;21111;-82
2022/05/07 01:35:00;;;;;;;14.45;10.45;;;;;;;6.01;74.41;101877.87;1706173;81;21077;-79
2022/05/07 01:37:28;;;;;;;13.05;9.28;;;;;;;6.00;74.49;101879.98;1668304;83;22441;-78
2022/05/07 01:39:56;;;;;;;13.98;10.15;;;;;;;6.01;74.66;101877.87;1656475;84;21248;-78
2022/05/07 01:42:23;;;;;;;17.02;10.18;;;;;;;6.00;74.58;101872.14;1719329;82;21049;-80
2022/05/07 01:44:50;;;;;;;13.88;9.28;;;;;;;6.02;74.61;101881.39;1709527;83;21098;-80
2022/05/07 01:50:03;;;;;;;13.98;8.73;;;;;;;6.05;74.60;101880.28;1695228;83;21821;-81
2022/05/07 01:52:29;;;;;;;12.00;7.72;;;;;;;6.04;74.62;101879.77;1722584;81;21080;-80
2022/05/07 01:54:56;;;;;;;11.85;8.68;;;;;;;6.07;74.71;101877.77;1727701;81;21587;-81
2022/05/07 01:57:36;;;;;;;;;;;;;;;;;;;;;
2022/05/07 01:59:57;;;;;;;13.10;7.75;;;;;;;6.09;74.68;101878.77;1720250;81;21061;-80
2022/05/07 02:02:24;;;;;;;13.43;7.15;;;;;;;6.10;74.71;101874.94;1709692;83;22715;-82
2022/05/07 02:04:51;;;;;;;11.60;6.50;;;;;;;6.13;74.78;101874.21;1697788;83;21120;-81
2022/05/07 02:07:20;;;;;;;9.05;6.97;;;;;;;6.16;74.75;101871.38;1708035;83;21696;-81
2022/05/07 02:09:49;;;;;;;8.60;6.55;;;;;;;6.19;74.81;101867.66;1697746;83;21892;-80
2022/05/07 02:12:15;;;;;;;10.13;6.78;;;;;;;6.21;74.79;101867.34;1717069;81;21121;-82
2022/05/07 02:14:43;;;;;;;11.68;7.22;;;;;;;6.20;74.72;101865.94;1699541;82;21829;-82
2022/05/07 02:17:13;;;;;;;14.15;6.92;;;;;;;6.18;74.74;101863.22;1699165;82;21105;-79
2022/05/07 02:19:40;;;;;;;12.43;7.72;;;;;;;6.20;74.85;101861.60;1697013;83;21136;-80
2022/05/07 02:22:09;;;;;;;15.05;10.90;;;;;;;6.22;74.86;101859.98;1698301;82;21372;-81
2022/05/07 02:24:36;;;;;;;10.58;7.08;;;;;;;6.21;74.71;101861.19;1700863;83;21089;-79
2022/05/07 02:27:03;;;;;;;14.70;7.47;;;;;;;6.17;74.74;101852.67;1712207;83;23199;-79
2022/05/07 02:29:30;;;;;;;12.23;7.92;;;;;;;6.20;74.76;101862.02;1715283;83;21078;-78
2022/05/07 02:32:06;;;;;;;10.10;6.80;;;;;;;6.19;74.81;101857.20;1697148;82;21093;-79
2022/05/07 02:34:39;;;;;;;11.15;6.30;;;;;;;6.19;74.81;101857.20;1709260;83;21065;-78
2022/05/07 02:37:06;;;;;;;11.50;7.30;;;;;;;6.21;74.93;101854.27;1721962;81;21064;-78
2022/05/07 02:39:35;;;;;;;10.50;7.10;;;;;;;6.25;74.93;101856.67;1716303;81;21783;-78
2022/05/07 02:44:53;;;;;;;14.60;7.28;;;;;;;6.32;75.02;101861.84;1713684;81;21141;-79
2022/05/07 02:47:25;;;;;;;11.65;6.30;;;;;;;6.36;75.13;101861.20;1721449;81;21674;-80
2022/05/07 02:49:52;;;;;;;9.10;5.87;;;;;;;6.39;75.11;101851.84;1671329;84;21783;-79
2022/05/07 02:52:19;;;;;;;11.83;6.33;;;;;;;6.44;75.14;101856.05;1722221;82;21812;-79
2022/05/07 02:54:49;;;;;;;8.95;5.50;;;;;;;6.48;75.20;101855.83;1723949;82;21117;-80
2022/05/07 02:57:18;;;;;;;10.43;6.50;;;;;;;6.55;75.32;101861.89;1713642;83;21086;-80
2022/05/07 02:59:47;;;;;;;10.20;5.58;;;;;;;6.61;75.30;101857.05;1715718;83;21406;-79
2022/05/07 03:02:13;;;;;;;11.48;5.80;;;;;;;6.69;75.39;101861.00;1693066;83;21656;-82
2022/05/07 03:04:42;;;;;;;8.78;6.37;;;;;;;6.81;75.54;101858.19;1704263;83;22623;-81
2022/05/07 03:07:09;;;;;;;9.43;5.03;;;;;;;6.95;75.60;101855.97;1712856;82;21297;-81
2022/05/07 03:09:39;;;;;;;9.25;4.95;;;;;;;7.12;75.76;101864.79;1671624;83;21086;-79
2022/05/07 03:12:06;;;;;;;7.53;4.53;;;;;;;7.31;75.78;101861.48;1704296;83;21558;-81
2022/05/07 03:14:33;;;;;;;8.70;4.75;;;;;;;7.51;75.75;101860.41;1687598;84;21091;-82
2022/05/07 03:17:00;;;;;;;7.87;5.40;;;;;;;7.70;75.67;101858.38;1716055;83;22524;-82
2022/05/07 03:19:27;;;;;;;11.45;5.83;;;;;;;7.89;75.60;101863.78;1716234;83;21089;-82
2022/05/07 03:21:54;;;;;;;11.85;6.62;;;;;;;8.08;75.50;101860.83;1697341;83;21086;-81
2022/05/07 03:24:22;;;;;;;9.60;6.28;;;;;;;8.27;75.41;101857.45;1704759;83;21094;-77
2022/05/07 03:26:49;;;;;;;8.80;5.10;;;;;;;8.46;75.24;101860.65;1706805;83;21100;-79
2022/05/07 03:29:16;;;;;;;9.60;5.17;;;;;;;8.69;75.29;101856.17;1715789;83;21782;-79
2022/05/07 03:31:44;;;;;;;6.20;4.40;;;;;;;9.00;75.20;101856.79;1707698;83;21116;-80
2022/05/07 03:34:10;;;;;;;8.30;3.62;;;;;;;9.38;75.21;101853.37;1695769;83;21388;-79
2022/05/07 03:36:38;;;;;;;9.18;3.77;;;;;;;9.72;74.60;101854.55;1708044;83;21285;-81
2022/05/07 03:39:05;;;;;;;6.25;4.60;;;;;;;9.82;73.75;101850.61;1696768;84;21119;-80
2022/05/07 03:41:34;;;;;;;9.23;4.95;;;;;;;9.86;73.43;101854.28;1716899;81;21766;-79
2022/05/07 03:44:01;;;;;;;7.72;4.10;;;;;;;9.91;73.22;101853.66;1728540;82;21154;-79
2022/05/07 03:46:28;;;;;;;8.85;4.20;;;;;;;9.95;72.97;101851.15;1715249;82;21091;-80
2022/05/07 03:48:54;;;;;;;5.17;3.98;;;;;;;10.00;72.82;101850.95;1710160;82;21145;-80
2022/05/07 03:51:21;;;;;;;8.45;3.87;;;;;;;10.04;72.66;101852.88;1727729;82;21417;-80
2022/05/07 03:53:48;;;;;;;6.70;4.20;;;;;;;10.09;72.45;101854.00;1730215;81;21740;-80
2022/05/07 03:56:15;;;;;;;6.22;4.30;;;;;;;10.15;72.44;101854.69;1718060;83;21062;-80
2022/05/07 03:58:42;;;;;;;7.05;3.90;;;;;;;10.14;72.40;101838.44;1711812;83;21538;-81
2022/05/07 04:01:09;;;;;;;5.80;4.28;;;;;;;10.35;72.25;101851.66;1701861;83;21098;-80
2022/05/07 04:03:36;;;;;;;6.95;3.62;;;;;;;10.45;72.19;101852.52;1731680;81;21044;-80
2022/05/07 04:06:03;;;;;;;4.50;3.70;;;;;;;10.54;72.05;101855.98;1731708;81;21782;-82
2022/05/07 04:08:33;;;;;;;6.55;4.00;;;;;;;10.65;72.05;101851.64;1732069;82;21080;-79
2022/05/07 04:10:59;;;;;;;4.50;3.40;;;;;;;10.74;71.89;101851.58;1713723;81;21065;-81
2022/05/07 04:13:26;;;;;;;7.80;4.17;;;;;;;10.75;71.81;101835.80;1718335;82;21072;-80
2022/05/07 04:15:52;;;;;;;6.50;3.83;;;;;;;10.90;71.72;101836.86;1731850;82;21064;-81
2022/05/07 04:18:19;;;;;;;5.90;3.62;;;;;;;11.01;71.59;101842.58;1713725;83;21801;-80
2022/05/07 04:20:46;;;;;;;4.30;3.22;;;;;;;11.07;71.36;101845.06;1715936;83;21051;-80
2022/05/07 04:23:12;;;;;;;7.12;3.70;;;;;;;11.10;71.14;101840.31;1709763;83;21777;-80
2022/05/07 04:25:40;;;;;;;6.83;3.70;;;;;;;11.15;70.97;101843.13;1711496;83;21105;-79
2022/05/07 04:28:08;;;;;;;8.45;4.00;;;;;;;11.20;70.91;101840.27;1690703;83;21093;-82
2022/05/07 04:30:35;;;;;;;6.47;3.95;;;;;;;11.26;70.91;101841.42;1713286;83;21709;-81
2022/05/07 04:33:01;;;;;;;6.62;4.90;;;;;;;11.37;71.00;101842.25;1707563;83;21070;-81
2022/05/07 04:35:30;;;;;;;7.37;5.47;;;;;;;11.44;70.76;101842.54;1712830;83;21078;-79
2022/05/07 04:37:57;;;;;;;8.10;5.65;;;;;;;11.51;70.77;101845.01;1712890;83;22147;-81
2022/05/07 04:40:24;;;;;;;9.13;6.87;;;;;;;11.61;70.65;101848.89;1693673;83;21713;-80
2022/05/07 04:42:51;;;;;;;7.03;5.97;;;;;;;11.63;70.39;101844.14;1712812;83;21789;-81
2022/05/07 04:45:18;;;;;;;6.70;5.33;;;;;;;11.63;70.24;101842.83;1713418;83;21078;-82
2022/05/07 04:47:44;;;;;;;8.63;5.70;;;;;;;11.67;70.33;101842.52;1703100;83;21565;-88
2022/05/07 04:50:13;;;;;;;6.85;5.37;;;;;;;11.77;70.38;101842.45;1714617;83;21129;-82
2022/05/07 04:52:39;;;;;;;8.10;5.40;;;;;;;11.85;70.23;101846.29;1713985;83;21098;-83
2022/05/07 04:55:07;;;;;;;9.28;5.28;;;;;;;11.93;70.10;101840.90;1709418;83;21884;-83
2022/05/07 04:57:34;;;;;;;6.30;4.33;;;;;;;12.00;69.96;101838.08;1680555;83;21070;-81
2022/05/07 05:00:01;;;;;;;6.33;3.98;;;;;;;12.09;69.82;101837.49;1712379;82;21730;-83
2022/05/07 05:02:27;;;;;;;7.00;3.95;;;;;;;12.15;69.66;101837.73;1713364;83;21188;-80
2022/05/07 05:04:54;;;;;;;4.70;3.60;;;;;;;12.23;69.57;101828.34;1711713;83;21094;-82
2022/05/07 05:07:21;;;;;;;7.83;4.65;;;;;;;12.33;69.49;101834.44;1713442;83;21919;-80
2022/05/07 05:09:47;;;;;;;6.05;4.00;;;;;;;12.44;69.29;101831.75;1692699;83;21089;-82
2022/05/07 05:12:15;;;;;;;7.40;3.92;;;;;;;12.45;69.18;101805.80;1693486;83;21061;-82
2022/05/07 05:17:27;;;;;;;7.42;3.55;;;;;;;12.91;68.78;101825.35;1704546;82;21154;-83
2022/05/07 05:19:53;;;;;;;4.83;4.00;;;;;;;12.98;68.63;101797.84;1710158;81;22664;-83
2022/05/07 05:22:20;;;;;;;4.50;3.52;;;;;;;13.26;68.31;101818.55;1697471;82;21054;-83
2022/05/07 05:24:47;;;;;;;4.60;3.77;;;;;;;13.40;68.13;101818.59;1704545;82;21658;-83
2022/05/07 05:27:14;;;;;;;8.45;3.83;;;;;;;13.55;67.83;101820.81;1712929;82;21095;-83
2022/05/07 05:29:41;;;;;;;7.20;3.98;;;;;;;13.69;67.56;101824.28;1702589;81;21095;-83
2022/05/07 05:32:08;;;;;;;10.68;4.00;;;;;;;13.88;67.49;101820.42;1695160;82;22474;-82
2022/05/07 05:34:35;;;;;;;7.37;4.75;;;;;;;14.09;67.19;101816.14;1705299;81;21098;-82
2022/05/07 05:37:02;;;;;;;8.95;5.55;;;;;;;14.44;67.23;101817.53;1722713;82;21104;-81
2022/05/07 05:39:29;;;;;;;8.63;5.50;;;;;;;14.80;66.92;101814.95;1716238;82;21132;-82
2022/05/07 05:41:58;;;;;;;10.50;5.85;;;;;;;15.15;66.62;101818.45;1720679;82;21163;-89
2022/05/07 05:44:24;;;;;;;8.53;5.92;;;;;;;15.51;66.18;101814.83;1703065;82;21797;-85
2022/05/07 05:46:51;;;;;;;11.08;4.80;;;;;;;15.91;65.70;101818.34;1698024;82;21081;-89
2022/05/07 05:49:19;;;;;;;6.80;4.12;;;;;;;16.23;65.33;101819.40;1698507;84;21167;-87
2022/05/07 05:51:54;;;;;;;9.60;4.72;;;;;;;16.40;64.53;101812.17;1686444;84;21221;-95
2022/05/07 05:54:21;;;;;;;8.80;4.75;;;;;;;16.32;64.08;101791.67;1720323;81;21117;-92
2022/05/07 05:56:48;;;;;;;5.80;4.37;;;;;;;16.49;63.61;101809.24;1683810;83;21750;-88
2022/05/07 05:59:14;;;;;;;6.28;4.17;;;;;;;16.48;63.37;101814.56;1718339;82;21058;-85
2022/05/07 06:01:44;;;;;;;6.37;3.87;;;;;;;16.55;63.28;101822.19;1675647;83;21520;-86
2022/05/07 06:04:11;;;;;;;5.92;3.87;;;;;;;16.64;62.93;101813.93;1704622;83;21037;-86
2022/05/07 06:06:38;;;;;;;7.67;3.77;;;;;;;16.69;62.64;101816.69;1688958;83;21080;-85
2022/05/07 06:09:05;;;;;;;4.67;3.60;;;;;;;16.74;62.54;101813.64;1696327;83;22609;-84
2022/05/07 06:11:33;;;;;;;3.90;3.12;;;;;;;16.80;62.21;101812.85;1709639;83;21671;-85
2022/05/07 06:14:00;;;;;;;6.45;3.35;;;;;;;16.85;61.99;101813.86;1709866;83;21065;-89
2022/05/07 06:16:27;;;;;;;5.25;3.30;;;;;;;16.96;61.71;101819.36;1703796;83;21069;-88
2022/05/07 06:18:53;;;;;;;8.53;3.60;;;;;;;17.04;61.53;101815.05;1721865;82;21084;-81
2022/05/07 06:21:20;;;;;;;4.08;3.50;;;;;;;17.07;61.16;101801.80;1723576;83;21768;-88
2022/05/07 06:23:53;;;;;;;6.05;4.10;;;;;;;17.19;60.98;101810.39;1714391;83;21101;-88
2022/05/07 06:29:35;;;;;;;4.65;3.15;;;;;;;17.48;60.70;101813.48;1722901;83;21062;-90
2022/05/07 06:32:18;;;;;;;4.03;2.95;;;;;;;17.67;60.39;101807.95;1690610;83;21080;-90
2022/05/07 06:37:56;;;;;;;;;;;;;;;;;;;;;
2022/05/07 06:40:14;;;;;;;5.12;2.47;;;;;;;18.01;59.01;101810.61;1698057;83;21542;-90
2022/05/07 06:42:43;;;;;;;3.50;2.77;;;;;;;18.15;58.73;101817.44;1714730;83;21142;-89
2022/05/07 06:45:11;;;;;;;4.25;2.55;;;;;;;18.28;58.51;101813.55;1708686;83;21870;-88
2022/05/07 06:47:40;;;;;;;3.33;2.40;;;;;;;18.40;58.16;101811.91;1719308;83;21853;-87
2022/05/07 06:50:08;;;;;;;5.40;2.77;;;;;;;18.52;57.72;101808.91;1710175;83;21053;-80
2022/05/07 06:52:45;;;;;;;8.85;2.83;;;;;;;18.62;57.42;101806.34;1710525;83;21058;-80
2022/05/07 06:55:14;;;;;;;3.72;2.65;;;;;;;18.72;57.22;101809.09;1696078;83;21153;-81
2022/05/07 06:57:41;;;;;;;6.20;3.00;;;;;;;18.81;56.76;101806.08;1709624;83;21101;-83
2022/05/07 07:00:10;;;;;;;3.98;2.77;;;;;;;18.99;56.67;101811.98;1713962;83;21807;-81
2022/05/07 07:02:38;;;;;;;4.50;3.20;;;;;;;19.21;56.60;101813.47;1710669;83;21074;-79
2022/05/07 07:05:05;;;;;;;4.37;2.87;;;;;;;19.38;56.19;101812.23;1715358;83;21113;-81
2022/05/07 07:07:32;;;;;;;2.75;2.55;;;;;;;19.54;55.99;101809.19;1714134;82;21126;-79
2022/05/07 07:09:59;;;;;;;5.35;2.83;;;;;;;19.67;55.42;101808.39;1703468;83;21065;-83
2022/05/07 07:12:25;;;;;;;5.05;2.92;;;;;;;19.75;55.04;101812.00;1714054;82;21766;-80
2022/05/07 07:14:52;;;;;;;12.70;3.10;;;;;;;19.75;54.60;101787.96;1708412;83;21086;-80
2022/05/07 07:17:19;;;;;;;3.37;3.02;;;;;;;19.88;54.14;101803.59;1714768;83;21137;-81
2022/05/07 07:19:46;;;;;;;7.55;2.85;;;;;;;19.89;53.71;101802.69;1713603;83;21150;-84
2022/05/07 07:22:13;;;;;;;4.78;2.87;;;;;;;19.82;53.26;101807.59;1708489;82;21193;-81
2022/05/07 07:24:40;;;;;;;4.83;3.20;;;;;;;19.67;53.11;101805.72;1709721;82;21726;-80
2022/05/07 07:27:08;;;;;;;11.65;3.20;;;;;;;19.17;52.88;101745.83;1707450;82;21093;-83
2022/05/07 07:29:35;;;;;;;5.12;3.08;;;;;;;19.36;52.63;101805.55;1713681;82;21344;-80
2022/05/07 07:32:02;;;;;;;6.87;3.20;;;;;;;19.23;52.65;101810.37;1706317;82;21061;-81
2022/05/07 07:34:28;;;;;;;6.37;3.58;;;;;;;19.12;52.75;101802.73;1686897;82;21090;-80
2022/05/07 07:36:55;;;;;;;18.77;3.80;;;;;;;19.11;52.74;101807.19;1695968;82;22362;-81
2022/05/07 07:39:22;;;;;;;8.28;3.17;;;;;;;19.05;52.61;101801.82;1670969;83;21557;-80
2022/05/07 07:41:49;;;;;;;18.17;3.90;;;;;;;18.95;52.56;101806.63;1668031;83;21102;-82
2022/05/07 07:44:15;;;;;;;12.20;3.70;;;;;;;18.91;52.46;101804.82;1675608;83;21115;-80
2022/05/07 07:49:27;;;;;;;9.38;3.12;;;;;;;18.99;52.44;101795.97;1681242;83;21768;-83
2022/05/07 07:51:55;;;;;;;12.28;3.90;;;;;;;19.09;52.31;101799.62;1683158;84;21095;-79
2022/05/07 07:54:22;;;;;;;18.25;4.75;;;;;;;19.14;52.16;101799.63;1733110;80;21109;-82
2022/05/07 07:56:49;;;;;;;10.75;3.67;;;;;;;19.10;51.99;101789.37;1732649;80;21196;-83
2022/05/07 07:59:16;;;;;;;5.97;2.80;;;;;;;19.18;51.68;101800.09;1728076;80;21160;-80
2022/05/07 08:01:43;;;;;;;8.18;3.10;;;;;;;19.23;51.65;101797.91;1732780;80;21838;-79
2022/05/07 08:04:10;;;;;;;8.23;3.17;;;;;;;19.26;51.47;101802.39;1736402;80;21066;-82
2022/05/07 08:06:37;;;;;;;4.03;2.60;;;;;;;19.21;51.34;101801.02;1736580;80;22141;-82
2022/05/07 08:11:55;;;;;;;4.80;3.02;;;;;;;18.97;51.16;101803.07;1664162;83;21153;-80
2022/05/07 08:14:21;;;;;;;5.75;3.77;;;;;;;18.78;51.19;101802.45;1726388;80;22974;-82
2022/05/07 08:16:48;;;;;;;5.95;3.22;;;;;;;18.67;51.25;101810.36;1733265;80;21532;-81
2022/05/07 08:19:16;;;;;;;6.22;2.70;;;;;;;18.58;51.31;101806.28;1737278;80;21039;-81
2022/05/07 08:21:48;;;;;;;3.65;2.42;;;;;;;18.53;51.50;101803.59;1700576;82;21792;-82
2022/05/07 08:24:17;;;;;;;9.03;3.62;;;;;;;18.45;51.31;101799.52;1728123;80;28134;-83
2022/05/07 08:26:43;;;;;;;7.50;3.00;;;;;;;18.45;51.39;101799.52;1693531;82;21785;-83
2022/05/07 08:29:10;;;;;;;6.20;2.80;;;;;;;18.56;51.34;101805.38;1696814;82;21101;-83
2022/05/07 08:31:37;;;;;;;4.72;2.72;;;;;;;18.71;51.19;101801.50;1725960;80;21292;-83
2022/05/07 08:34:04;;;;;;;33.15;3.30;;;;;;;18.90;51.20;101804.35;1729840;80;21071;-81
2022/05/07 08:36:31;;;;;;;6.28;2.40;;;;;;;19.10;51.14;101786.70;1728539;80;21106;-81
2022/05/07 08:38:58;;;;;;;4.12;2.90;;;;;;;19.52;50.85;101799.86;1736862;80;21804;-80
2022/05/07 08:41:25;;;;;;;3.50;2.42;;;;;;;19.79;50.42;101794.21;1731254;80;21089;-82
2022/05/07 08:43:51;;;;;;;4.05;2.50;;;;;;;19.92;50.05;101796.48;1723742;81;21597;-81
2022/05/07 08:46:23;;;;;;;5.65;2.60;;;;;;;20.05;49.99;101804.09;1736283;80;21185;-81
2022/05/07 08:48:47;;;;;;;4.75;2.77;;;;;;;20.13;49.82;101797.86;1729673;80;21529;-80
2022/05/07 08:51:15;;;;;;;7.90;2.22;;;;;;;20.28;49.74;101799.67;1745667;80;21747;-80
2022/05/07 08:53:43;;;;;;;3.27;2.65;;;;;;;20.42;49.47;101798.80;1733778;81;21077;-82
2022/05/07 08:56:11;;;;;;;3.20;2.45;;;;;;;20.58;49.27;101800.14;1737557;80;21247;-83
2022/05/07 08:58:38;;;;;;;3.85;2.60;;;;;;;20.75;49.02;101798.84;1738082;80;22368;-80
2022/05/07 09:01:06;;;;;;;6.35;2.98;;;;;;;21.07;49.04;101791.22;1740542;80;21055;-81
2022/05/07 09:03:41;;;;;;;3.42;2.33;;;;;;;21.39;48.75;101783.55;1742425;80;22598;-81
2022/05/07 09:06:27;;;;;;;3.22;2.25;;;;;;;21.69;48.25;101792.41;1741905;80;22341;-81
2022/05/07 09:08:56;;;;;;;7.35;2.85;;;;;;;21.78;47.93;101779.42;1732397;81;21626;-83
2022/05/07 09:11:22;;;;;;;3.30;2.45;;;;;;;21.85;47.60;101781.17;1719698;81;21739;-82
2022/05/07 09:14:01;;;;;;;3.95;2.62;;;;;;;21.85;47.60;101781.17;1733570;81;21446;-81
2022/05/07 09:16:39;;;;;;;3.40;2.40;;;;;;;21.89;47.23;101781.14;1741931;80;21818;-80
2022/05/07 09:19:06;;;;;;;5.37;3.02;;;;;;;21.89;47.06;101784.27;1740360;80;21109;-80
2022/05/07 09:21:47;;;;;;;5.40;2.87;;;;;;;21.70;46.91;101757.56;1714305;80;21056;-80
2022/05/07 09:24:17;;;;;;;5.00;2.75;;;;;;;21.67;46.72;101772.31;1719497;82;21098;-81
2022/05/07 09:26:47;;;;;;;4.80;2.50;;;;;;;21.50;46.44;101784.44;1733617;80;21075;-81
2022/05/07 09:29:14;;;;;;;5.35;2.60;;;;;;;21.32;46.40;101777.34;1734085;80;21937;-81
2022/05/07 09:31:43;;;;;;;5.75;2.67;;;;;;;21.15;46.57;101773.80;1732034;80;21066;-83
2022/05/07 09:37:14;;;;;;;3.42;2.60;;;;;;;20.69;46.54;101765.41;1732128;80;21118;-82
2022/05/07 09:39:47;;;;;;;4.37;3.20;;;;;;;20.48;46.74;101759.59;1723509;81;21062;-82
2022/05/07 09:42:20;;;;;;;5.67;3.45;;;;;;;20.31;47.01;101758.67;1737019;81;21804;-81
2022/05/07 09:44:47;;;;;;;5.85;2.98;;;;;;;20.13;47.13;101757.77;1734387;80;21180;-79
2022/05/07 09:47:14;;;;;;;6.70;3.00;;;;;;;20.08;47.52;101746.16;1733942;80;21110;-82
2022/05/07 09:52:11;;;;;;;8.10;3.80;;;;;;;20.20;47.98;101746.66;1707295;82;21145;-81
2022/05/07 09:57:31;;;;;;;5.45;2.60;;;;;;;20.30;47.93;101743.08;1736671;80;21065;-83
2022/05/07 10:00:07;;;;;;;4.15;3.15;;;;;;;20.44;47.98;101743.11;1738819;80;21317;-82
2022/05/07 10:03:08;;;;;;;2.90;2.60;;;;;;;20.54;47.67;101735.96;1733832;80;22373;-84
2022/05/07 10:05:43;;;;;;;4.00;2.90;;;;;;;20.73;47.71;101735.08;1726829;80;21086;-86
2022/05/07 10:08:21;;;;;;;4.10;2.80;;;;;;;21.07;47.71;101730.98;1729437;80;21789;-85
2022/05/07 10:10:49;;;;;;;6.42;3.50;;;;;;;21.44;47.64;101725.54;1730953;81;21079;-82
2022/05/07 10:13:19;;;;;;;7.97;3.90;;;;;;;21.82;47.37;101727.12;1734780;80;21086;-82
2022/05/07 10:15:46;;;;;;;6.00;4.28;;;;;;;22.09;46.71;101719.36;1727699;82;21499;-83
2022/05/07 10:18:16;;;;;;;3.83;2.72;;;;;;;22.35;46.39;101729.00;1709808;82;21832;-81
2022/05/07 10:20:46;;;;;;;3.22;2.52;;;;;;;22.63;45.75;101720.72;1727322;80;22561;-82
2022/05/07 10:23:14;;;;;;;6.70;3.02;;;;;;;22.86;45.16;101721.82;1730299;80;21173;-85
2022/05/07 10:25:44;;;;;;;4.92;3.05;;;;;;;22.97;44.67;101720.37;1734489;80;21102;-83
2022/05/07 10:28:14;;;;;;;6.50;3.87;;;;;;;23.00;44.52;101721.23;1737303;80;21094;-83
2022/05/07 10:30:49;;;;;;;4.10;2.90;;;;;;;23.00;43.90;101721.23;1727597;80;21087;-83
2022/05/07 10:33:16;;;;;;;4.53;3.27;;;;;;;22.88;43.71;101725.37;1742317;82;21728;-83
2022/05/07 10:35:53;;;;;;;3.27;2.80;;;;;;;22.72;43.32;101717.95;1738185;80;21116;-83
2022/05/07 10:38:37;;;;;;;7.80;3.80;;;;;;;22.62;43.34;101717.16;1736821;82;21047;-84
2022/05/07 10:41:14;;;;;;;7.12;3.58;;;;;;;22.71;43.49;101720.18;1726330;81;21661;-83
2022/05/07 10:43:52;;;;;;;4.95;2.70;;;;;;;22.85;43.37;101720.94;1743918;80;21745;-83
2022/05/07 10:46:22;;;;;;;5.53;2.75;;;;;;;22.93;43.17;101699.38;1735177;82;21548;-84
2022/05/07 10:49:00;;;;;;;5.03;2.92;;;;;;;23.20;42.81;101708.04;1673715;84;21078;-85
2022/05/07 10:51:56;;;;;;;2.75;2.40;;;;;;;23.36;42.51;101711.44;1686887;83;21087;-83
2022/05/07 10:54:24;;;;;;;3.12;2.50;;;;;;;23.49;42.46;101709.91;1690286;84;21118;-84
2022/05/07 10:56:54;;;;;;;4.40;2.75;;;;;;;23.45;42.43;101697.89;1683168;83;21102;-84
2022/05/07 10:59:22;;;;;;;5.80;3.00;;;;;;;23.60;42.34;101711.11;1687430;83;22781;-81
2022/05/07 11:01:49;;;;;;;4.37;2.50;;;;;;;23.64;42.18;101715.98;1693947;84;21119;-85
2022/05/07 11:04:22;;;;;;;6.50;2.35;;;;;;;23.65;41.69;101705.69;1691920;83;21561;-86
2022/05/07 11:06:53;;;;;;;4.80;2.10;;;;;;;23.70;41.57;101707.83;1674833;83;21317;-84
2022/05/07 11:09:23;;;;;;;5.37;2.20;;;;;;;23.85;41.23;101704.06;1694045;84;21075;-84
2022/05/07 11:11:54;;;;;;;6.00;3.52;;;;;;;23.99;40.88;101700.72;1691502;83;21768;-86
2022/05/07 11:14:34;;;;;;;4.95;2.50;;;;;;;24.03;40.51;101692.16;1692992;84;21150;-85
2022/05/07 11:17:03;;;;;;;6.37;2.35;;;;;;;24.17;40.46;101702.67;1683712;83;21079;-84
2022/05/07 11:19:34;;;;;;;6.33;2.75;;;;;;;24.08;39.96;101698.78;1691342;84;21099;-85
2022/05/07 11:22:03;;;;;;;3.98;2.20;;;;;;;23.92;39.97;101701.72;1695776;84;21194;-83
2022/05/07 11:24:31;;;;;;;6.70;2.72;;;;;;;23.65;40.00;101691.78;1678516;84;22590;-83
2022/05/07 11:27:04;;;;;;;2.85;1.92;;;;;;;23.55;40.23;101702.22;1677524;82;21091;-83
2022/05/07 11:29:30;;;;;;;5.15;2.45;;;;;;;23.43;40.34;101683.12;1708605;83;22339;-86
2022/05/07 11:32:08;;;;;;;3.22;2.30;;;;;;;23.61;40.37;101700.81;1702026;82;21337;-85
2022/05/07 11:34:41;;;;;;;4.47;2.02;;;;;;;23.71;40.22;101688.58;1691563;82;21631;-82
2022/05/07 11:37:20;;;;;;;3.08;1.80;;;;;;;23.78;40.14;101690.24;1692089;82;22586;-81
2022/05/07 11:39:57;;;;;;;5.28;2.50;;;;;;;23.70;39.95;101690.36;1740579;82;21086;-80
2022/05/07 11:42:43;;;;;;;3.83;2.40;;;;;;;23.48;39.57;101684.39;1738387;80;21071;-81
2022/05/07 11:45:27;;;;;;;5.62;2.77;;;;;;;23.18;39.49;101684.34;1746265;81;21468;-83
2022/05/07 11:48:04;;;;;;;9.88;3.25;;;;;;;22.86;39.44;101697.66;1738099;81;21055;-84
2022/05/07 11:50:33;;;;;;;6.95;2.75;;;;;;;22.54;39.46;101692.62;1673231;83;21857;-84
2022/05/07 11:53:18;;;;;;;5.47;2.33;;;;;;;22.13;39.79;101671.97;1673100;83;21125;-83
2022/05/07 11:55:47;;;;;;;5.67;2.37;;;;;;;22.30;40.19;101700.02;1676523;83;21523;-83
2022/05/07 11:58:21;;;;;;;5.25;2.17;;;;;;;22.55;40.33;101687.72;1738057;80;21083;-83
2022/05/07 12:00:50;;;;;;;4.80;2.35;;;;;;;22.77;40.35;101691.95;1737111;81;21682;-85
2022/05/07 12:03:26;;;;;;;3.67;2.12;;;;;;;23.00;39.92;101695.72;1739664;82;21769;-86
2022/05/07 12:05:55;;;;;;;4.78;2.70;;;;;;;23.04;39.52;101688.09;1724011;80;21255;-83
2022/05/07 12:08:31;;;;;;;7.75;3.10;;;;;;;23.05;39.50;101679.61;1730588;82;22337;-84